createdAt,value
2023-01-11T00:02:09.218Z,12.18
2023-01-11T00:04:37.511Z,15.43
2023-01-11T00:07:08.333Z,13.30
2023-01-11T00:09:39.715Z,12.45
2023-01-11T00:12:12.380Z,11.38
2023-01-11T00:14:40.942Z,12.15
2023-01-11T00:17:09.591Z,11.75
2023-01-11T00:19:38.688Z,12.77
2023-01-11T00:22:09.200Z,12.50
2023-01-11T00:24:37.828Z,14.10
2023-01-11T00:27:06.031Z,13.10
2023-01-11T00:29:34.645Z,14.20
2023-01-11T00:32:04.389Z,15.27
2023-01-11T00:34:34.885Z,15.98
2023-01-11T00:37:04.533Z,17.35
2023-01-11T00:39:36.724Z,15.38
2023-01-11T00:42:22.790Z,16.35
2023-01-11T00:45:08.754Z,17.08
2023-01-11T00:47:54.571Z,20.33
2023-01-11T00:50:23.187Z,16.13
2023-01-11T00:52:51.734Z,16.10
2023-01-11T00:55:21.868Z,16.08
2023-01-11T00:57:50.347Z,17.25
2023-01-11T01:00:20.029Z,15.90
2023-01-11T01:02:54.108Z,14.95
2023-01-11T01:05:22.800Z,14.50
2023-01-11T01:07:51.502Z,14.27
2023-01-11T01:10:22.187Z,14.95
2023-01-11T01:13:07.735Z,15.02
2023-01-11T01:15:36.358Z,16.65
2023-01-11T01:18:05.775Z,16.35
2023-01-11T01:20:35.877Z,14.75
2023-01-11T01:23:04.679Z,14.45
2023-01-11T01:25:37.964Z,16.83
2023-01-11T01:28:06.947Z,14.30
2023-01-11T01:30:36.667Z,13.88
2023-01-11T01:33:05.456Z,13.93
2023-01-11T01:35:34.363Z,12.60
2023-01-11T01:38:02.758Z,14.25
2023-01-11T01:40:31.982Z,13.02
2023-01-11T01:43:02.532Z,12.18
2023-01-11T01:45:31.289Z,13.35
2023-01-11T01:48:02.433Z,12.15
2023-01-11T01:50:36.520Z,11.50
2023-01-11T01:53:09.385Z,12.73
2023-01-11T01:55:40.921Z,12.05
2023-01-11T01:58:17.503Z,13.20
2023-01-11T02:00:48.605Z,11.50
2023-01-11T02:03:20.915Z,13.00
2023-01-11T02:05:54.002Z,14.40
2023-01-11T02:08:31.355Z,12.50
2023-01-11T02:11:01.102Z,13.35
2023-01-11T02:13:32.266Z,11.88
2023-01-11T02:16:09.330Z,12.38
2023-01-11T02:18:38.864Z,12.63
2023-01-11T02:21:23.405Z,12.68
2023-01-11T02:24:20.656Z,12.23
2023-01-11T02:27:10.205Z,13.18
2023-01-11T02:29:48.370Z,11.50
2023-01-11T02:32:36.025Z,11.60
2023-01-11T02:35:14.781Z,11.55
2023-01-11T02:37:57.105Z,12.07
2023-01-11T02:40:33.035Z,13.35
2023-01-11T02:43:24.770Z,12.65
2023-01-11T02:46:04.523Z,12.05
2023-01-11T02:48:41.140Z,12.15
2023-01-11T02:51:14.456Z,11.60
2023-01-11T02:53:50.732Z,12.63
2023-01-11T02:56:24.047Z,11.75
2023-01-11T02:58:54.253Z,14.40
2023-01-11T03:03:56.314Z,14.25
2023-01-11T03:06:27.583Z,13.05
2023-01-11T03:09:15.827Z,17.75
2023-01-11T03:12:13.132Z,13.57
2023-01-11T03:14:51.690Z,15.57
2023-01-11T03:17:32.101Z,15.32
2023-01-11T03:20:07.152Z,15.18
2023-01-11T03:22:44.070Z,16.17
2023-01-11T03:25:21.262Z,16.15
2023-01-11T03:27:58.000Z,17.00
2023-01-11T03:30:34.243Z,15.82
2023-01-11T03:33:08.926Z,17.75
2023-01-11T03:35:42.792Z,16.88
2023-01-11T03:38:18.571Z,16.10
2023-01-11T03:40:52.053Z,15.27
2023-01-11T03:43:24.449Z,15.93
2023-01-11T03:45:57.459Z,16.83
2023-01-11T03:48:32.624Z,16.60
2023-01-11T03:51:04.396Z,17.35
2023-01-11T03:53:37.827Z,17.90
2023-01-11T03:56:11.790Z,15.65
2023-01-11T03:58:40.671Z,16.17
2023-01-11T04:01:09.799Z,16.48
2023-01-11T04:03:39.885Z,18.33
2023-01-11T04:06:12.440Z,17.70
2023-01-11T04:08:41.326Z,16.75
2023-01-11T04:11:12.858Z,18.48
2023-01-11T04:13:43.098Z,16.98
2023-01-11T04:16:11.982Z,18.17
2023-01-11T04:18:41.980Z,18.13
2023-01-11T04:21:10.668Z,16.70
2023-01-11T04:23:44.795Z,18.48
2023-01-11T04:26:14.097Z,19.25
2023-01-11T04:28:43.883Z,20.55
2023-01-11T04:31:12.900Z,20.42
2023-01-11T04:33:42.976Z,20.17
2023-01-11T04:36:13.607Z,21.30
2023-01-11T04:38:50.474Z,17.50
2023-01-11T04:41:36.394Z,20.83
2023-01-11T04:44:05.060Z,21.67
2023-01-11T04:46:33.266Z,19.10
2023-01-11T04:49:04.363Z,20.23
2023-01-11T04:51:33.152Z,20.33
2023-01-11T04:54:01.427Z,19.27
2023-01-11T04:56:30.310Z,23.60
2023-01-11T04:58:59.447Z,20.17
2023-01-11T05:01:28.157Z,22.98
2023-01-11T05:03:56.511Z,19.67
2023-01-11T05:06:26.970Z,20.77
2023-01-11T05:08:55.421Z,20.25
2023-01-11T05:11:23.983Z,18.05
2023-01-11T05:13:53.294Z,22.38
2023-01-11T05:16:24.763Z,22.92
2023-01-11T05:18:59.833Z,22.65
2023-01-11T05:21:31.734Z,23.58
2023-01-11T05:26:34.523Z,24.05
2023-01-11T05:29:06.021Z,21.50
2023-01-11T05:31:37.651Z,23.23
2023-01-11T05:34:07.348Z,26.15
2023-01-11T05:36:38.303Z,26.75
2023-01-11T05:39:07.414Z,28.43
2023-01-11T05:41:37.829Z,26.17
2023-01-11T05:44:24.259Z,22.98
2023-01-11T05:46:54.334Z,24.13
2023-01-11T05:49:24.200Z,25.70
2023-01-11T05:51:54.201Z,27.55
2023-01-11T05:54:22.959Z,24.00
2023-01-11T05:56:51.494Z,26.30
2023-01-11T05:59:19.666Z,24.35
2023-01-11T06:01:50.536Z,25.92
2023-01-11T06:04:19.302Z,24.85
2023-01-11T06:06:47.591Z,27.70
2023-01-11T06:09:17.567Z,25.17
2023-01-11T06:11:46.222Z,27.33
2023-01-11T06:14:14.751Z,26.45
2023-01-11T06:16:43.394Z,24.05
2023-01-11T06:19:11.908Z,28.20
2023-01-11T06:21:45.076Z,24.80
2023-01-11T06:24:13.298Z,25.90
2023-01-11T06:26:43.454Z,28.20
2023-01-11T06:29:12.217Z,25.13
2023-01-11T06:31:40.955Z,25.42
2023-01-11T06:34:09.314Z,27.38
2023-01-11T06:36:39.203Z,30.67
2023-01-11T06:39:07.807Z,29.33
2023-01-11T06:41:36.455Z,30.83
2023-01-11T06:44:07.053Z,30.65
2023-01-11T06:46:37.095Z,28.63
2023-01-11T06:49:08.737Z,29.27
2023-01-11T06:51:37.356Z,28.95
2023-01-11T06:54:07.220Z,31.73
2023-01-11T06:56:38.440Z,30.48
2023-01-11T06:59:08.639Z,37.83
2023-01-11T07:01:37.622Z,33.28
2023-01-11T07:04:07.691Z,32.53
2023-01-11T07:06:39.090Z,37.35
2023-01-11T07:09:07.770Z,33.60
2023-01-11T07:11:39.208Z,39.10
2023-01-11T07:14:11.769Z,37.70
2023-01-11T07:16:40.058Z,37.67
2023-01-11T07:19:09.483Z,40.95
2023-01-11T07:21:38.176Z,37.00
2023-01-11T07:24:07.381Z,43.33
2023-01-11T07:26:41.566Z,39.05
2023-01-11T07:29:12.228Z,39.70
2023-01-11T07:31:41.870Z,44.25
2023-01-11T07:34:10.837Z,45.50
2023-01-11T07:36:39.749Z,43.95
2023-01-11T07:39:08.382Z,42.88
2023-01-11T07:41:55.668Z,45.47
2023-01-11T07:44:25.672Z,47.28
2023-01-11T07:46:54.464Z,42.10
2023-01-11T07:49:23.232Z,42.55
2023-01-11T07:51:53.292Z,36.70
2023-01-11T07:54:21.750Z,35.90
2023-01-11T07:56:50.709Z,33.15
2023-01-11T07:59:19.500Z,34.17
2023-01-11T08:01:50.756Z,31.65
2023-01-11T08:04:21.170Z,34.47
2023-01-11T08:06:49.977Z,30.33
2023-01-11T08:09:18.171Z,28.85
2023-01-11T08:12:08.178Z,32.05
2023-01-11T08:14:41.879Z,30.05
2023-01-11T08:17:15.052Z,29.17
2023-01-11T08:19:45.322Z,28.52
2023-01-11T08:22:17.699Z,26.23
2023-01-11T08:24:48.886Z,29.15
2023-01-11T08:27:19.463Z,28.88
2023-01-11T08:29:55.427Z,28.20
2023-01-11T08:32:31.512Z,29.50
2023-01-11T08:35:03.354Z,31.42
2023-01-11T08:37:32.380Z,34.40
2023-01-11T08:40:03.868Z,32.60
2023-01-11T08:42:41.162Z,31.58
2023-01-11T08:45:13.795Z,33.85
2023-01-11T08:47:44.808Z,31.38
2023-01-11T08:50:16.317Z,30.40
2023-01-11T08:52:51.143Z,27.65
2023-01-11T08:55:27.963Z,26.88
2023-01-11T08:57:58.929Z,34.70
2023-01-11T09:00:30.391Z,32.03
2023-01-11T09:03:03.157Z,28.48
2023-01-11T09:05:32.109Z,28.98
2023-01-11T09:08:01.070Z,32.42
2023-01-11T09:10:30.407Z,29.83
2023-01-11T09:12:58.998Z,28.77
2023-01-11T09:15:28.304Z,26.10
2023-01-11T09:17:57.590Z,23.95
2023-01-11T09:20:27.538Z,25.00
2023-01-11T09:22:55.838Z,20.88
2023-01-11T09:25:26.022Z,24.02
2023-01-11T09:27:54.417Z,27.20
2023-01-11T09:30:24.632Z,22.98
2023-01-11T09:32:54.870Z,22.60
2023-01-11T09:35:25.552Z,24.30
2023-01-11T09:37:57.286Z,21.23
2023-01-11T09:40:35.599Z,20.08
2023-01-11T09:43:07.659Z,20.90
2023-01-11T09:45:37.517Z,20.13
2023-01-11T09:48:15.795Z,22.33
2023-01-11T09:50:48.931Z,19.52
2023-01-11T09:53:28.229Z,17.23
2023-01-11T09:56:01.148Z,15.63
2023-01-11T09:58:50.159Z,16.13
2023-01-11T10:01:26.225Z,17.63
2023-01-11T10:04:26.120Z,16.80
2023-01-11T10:07:16.629Z,16.88
2023-01-11T10:18:27.914Z,14.55
2023-01-11T10:22:15.893Z,13.05
2023-01-11T10:24:53.345Z,14.35
2023-01-11T10:27:33.486Z,14.02
2023-01-11T10:30:34.470Z,13.90
2023-01-11T10:33:20.197Z,15.27
2023-01-11T10:36:19.035Z,14.43
2023-01-11T10:39:08.141Z,14.77
2023-01-11T10:41:53.749Z,14.02
2023-01-11T10:44:32.978Z,12.82
2023-01-11T10:47:09.635Z,14.50
2023-01-11T10:49:50.440Z,13.60
2023-01-11T10:52:34.047Z,13.55
2023-01-11T10:55:15.890Z,14.38
2023-01-11T10:58:02.718Z,14.48
2023-01-11T11:00:45.663Z,13.88
2023-01-11T11:03:49.822Z,13.77
2023-01-11T11:06:29.375Z,14.40
2023-01-11T11:09:07.618Z,13.57
2023-01-11T11:11:44.263Z,14.00
2023-01-11T11:14:20.073Z,17.33
2023-01-11T11:17:01.725Z,13.30
2023-01-11T11:19:35.689Z,13.32
2023-01-11T11:22:08.507Z,12.55
2023-01-11T11:24:47.411Z,12.00
2023-01-11T11:27:22.590Z,12.07
2023-01-11T11:29:57.855Z,12.15
2023-01-11T11:32:30.007Z,11.63
2023-01-11T11:35:00.411Z,11.27
2023-01-11T11:37:35.879Z,11.05
2023-01-11T11:40:14.284Z,10.52
2023-01-11T11:42:45.503Z,11.32
2023-01-11T11:45:21.505Z,10.70
2023-01-11T11:48:06.883Z,10.05
2023-01-11T11:50:44.768Z,10.10
2023-01-11T11:53:28.161Z,10.48
2023-01-11T11:55:58.356Z,9.43
2023-01-11T11:58:32.243Z,9.25
2023-01-11T12:01:11.131Z,10.43
2023-01-11T12:03:45.540Z,9.48
2023-01-11T12:06:24.117Z,12.02
2023-01-11T12:08:55.571Z,9.40
2023-01-11T12:11:34.958Z,9.63
2023-01-11T12:14:19.404Z,10.10
2023-01-11T12:16:53.167Z,11.65
2023-01-11T12:19:35.383Z,10.32
2023-01-11T12:22:18.081Z,10.13
2023-01-11T12:25:06.410Z,9.60
2023-01-11T12:27:41.864Z,9.60
2023-01-11T12:30:23.118Z,10.73
2023-01-11T12:33:32.617Z,10.65
2023-01-11T12:36:09.595Z,9.50
2023-01-11T12:38:49.850Z,9.73
2023-01-11T12:41:51.558Z,11.30
2023-01-11T12:44:40.225Z,11.27
2023-01-11T12:47:31.750Z,10.30
2023-01-11T12:50:15.004Z,9.60
2023-01-11T12:52:58.850Z,10.68
2023-01-11T12:55:37.754Z,13.27
2023-01-11T12:58:18.318Z,11.55
2023-01-11T13:01:17.349Z,10.50
2023-01-11T13:04:39.553Z,10.48
2023-01-11T13:07:26.163Z,10.80
2023-01-11T13:10:07.565Z,9.48
2023-01-11T13:12:42.513Z,9.75
2023-01-11T13:15:48.632Z,10.52
2023-01-11T13:18:29.359Z,15.07
2023-01-11T13:21:11.550Z,12.07
2023-01-11T13:23:49.905Z,10.20
2023-01-11T13:26:25.324Z,9.32
2023-01-11T13:29:01.155Z,11.95
2023-01-11T13:31:34.051Z,11.30
2023-01-11T13:34:08.609Z,10.40
2023-01-11T13:36:45.579Z,11.60
2023-01-11T13:39:28.485Z,10.77
2023-01-11T13:42:03.584Z,11.18
2023-01-11T13:44:45.034Z,9.32
2023-01-11T13:47:22.192Z,10.37
2023-01-11T13:50:01.775Z,9.07
2023-01-11T13:52:47.123Z,8.90
2023-01-11T13:55:26.787Z,9.60
2023-01-11T13:58:01.487Z,10.88
2023-01-11T14:00:38.627Z,9.15
2023-01-11T14:03:21.428Z,10.10
2023-01-11T14:06:06.573Z,9.93
2023-01-11T14:09:01.642Z,10.07
2023-01-11T14:11:40.425Z,11.75
2023-01-11T14:14:33.713Z,9.73
2023-01-11T14:17:29.069Z,9.82
2023-01-11T14:20:12.669Z,9.07
2023-01-11T14:22:47.524Z,9.63
2023-01-11T14:25:21.993Z,9.93
2023-01-11T14:28:26.359Z,9.50
2023-01-11T14:31:09.901Z,9.63
2023-01-11T14:34:21.923Z,9.57
2023-01-11T14:37:27.747Z,10.73
2023-01-11T14:40:24.080Z,15.43
2023-01-11T14:43:28.115Z,25.30
2023-01-11T14:46:15.609Z,28.90
2023-01-11T14:48:53.300Z,28.80
2023-01-11T14:51:35.679Z,24.27
2023-01-11T14:54:11.494Z,20.65
2023-01-11T14:56:57.657Z,18.15
2023-01-11T14:59:37.745Z,18.75
2023-01-11T15:02:26.279Z,20.05
2023-01-11T15:05:13.868Z,17.20
2023-01-11T15:07:53.061Z,19.60
2023-01-11T15:10:41.199Z,18.10
2023-01-11T15:13:15.892Z,20.63
2023-01-11T15:16:08.981Z,23.15
2023-01-11T15:18:46.421Z,35.05
2023-01-11T15:21:22.986Z,21.92
2023-01-11T15:23:54.594Z,20.48
2023-01-11T15:26:24.713Z,23.30
2023-01-11T15:28:56.654Z,22.87
2023-01-11T15:31:40.137Z,23.17
2023-01-11T15:34:27.734Z,22.48
2023-01-11T15:37:33.929Z,23.08
2023-01-11T15:40:11.371Z,26.25
2023-01-11T15:43:26.282Z,23.10
2023-01-11T15:46:53.091Z,28.98
2023-01-11T15:50:03.089Z,25.08
2023-01-11T15:53:11.414Z,32.75
2023-01-11T15:56:11.518Z,33.90
2023-01-11T15:59:25.677Z,37.72
2023-01-11T16:02:34.318Z,38.20
2023-01-11T16:05:15.905Z,31.35
2023-01-11T16:07:53.673Z,33.78
2023-01-11T16:10:59.867Z,34.35
2023-01-11T16:13:41.886Z,36.33
2023-01-11T16:16:20.371Z,35.13
2023-01-11T16:18:53.472Z,36.35
2023-01-11T16:21:32.670Z,35.45
2023-01-11T16:24:06.029Z,35.42
2023-01-11T16:26:37.382Z,39.55
2023-01-11T16:29:12.224Z,43.15
2023-01-11T16:31:58.348Z,40.00
2023-01-11T16:34:27.452Z,45.42
2023-01-11T16:36:56.399Z,44.60
2023-01-11T16:39:31.542Z,39.80
2023-01-11T16:42:03.261Z,48.58
2023-01-11T16:44:41.983Z,54.92
2023-01-11T16:47:15.960Z,60.65
2023-01-11T16:49:49.499Z,55.92
2023-01-11T16:52:52.640Z,67.53
2023-01-11T16:55:27.346Z,63.78
2023-01-11T16:58:01.120Z,60.80
2023-01-11T17:00:39.948Z,59.97
2023-01-11T17:03:21.693Z,56.78
2023-01-11T17:05:58.276Z,61.83
2023-01-11T17:08:31.987Z,52.00
2023-01-11T17:11:05.664Z,60.67
2023-01-11T17:13:55.760Z,52.55
2023-01-11T17:16:36.560Z,43.35
2023-01-11T17:19:10.325Z,56.53
2023-01-11T17:21:39.162Z,52.53
2023-01-11T17:24:12.571Z,45.20
2023-01-11T17:26:46.364Z,50.00
2023-01-11T17:29:19.458Z,48.15
2023-01-11T17:31:51.188Z,55.75
2023-01-11T17:34:25.152Z,55.63
2023-01-11T17:36:58.000Z,54.50
2023-01-11T17:39:33.248Z,64.05
2023-01-11T17:42:25.980Z,73.88
2023-01-11T17:45:15.464Z,74.18
2023-01-11T17:47:48.380Z,72.88
2023-01-11T17:50:26.191Z,65.00
2023-01-11T17:53:07.605Z,67.30
2023-01-11T17:55:37.814Z,68.10
2023-01-11T17:58:32.101Z,69.78
2023-01-11T18:01:22.252Z,73.90
2023-01-11T18:03:57.489Z,94.22
2023-01-11T18:06:35.470Z,92.43
2023-01-11T18:09:08.291Z,87.10
2023-01-11T18:11:42.791Z,88.40
2023-01-11T18:14:22.512Z,82.40
2023-01-11T18:17:02.512Z,93.13
2023-01-11T18:19:39.395Z,87.78
2023-01-11T18:22:29.414Z,84.93
2023-01-11T18:24:59.975Z,68.70
2023-01-11T18:27:39.634Z,64.95
2023-01-11T18:30:39.320Z,71.57
2023-01-11T18:33:15.822Z,83.20
2023-01-11T18:35:47.864Z,93.70
2023-01-11T18:38:21.460Z,87.35
2023-01-11T18:40:55.725Z,88.93
2023-01-11T18:43:29.967Z,98.22
2023-01-11T18:46:02.610Z,93.93
2023-01-11T18:48:36.360Z,99.95
2023-01-11T18:51:07.105Z,102.15
2023-01-11T18:53:37.384Z,105.05
2023-01-11T18:56:07.286Z,129.43
2023-01-11T18:58:37.759Z,142.70
2023-01-11T19:01:11.189Z,162.85
2023-01-11T19:03:44.606Z,165.90
2023-01-11T19:06:19.423Z,148.07
2023-01-11T19:08:50.518Z,171.00
2023-01-11T19:11:19.319Z,173.00
2023-01-11T19:13:49.836Z,194.20
2023-01-11T19:16:24.769Z,183.73
2023-01-11T19:18:58.873Z,166.07
2023-01-11T19:21:28.244Z,152.35
2023-01-11T19:24:02.931Z,162.75
2023-01-11T19:26:32.795Z,172.23
2023-01-11T19:29:01.837Z,140.88
2023-01-11T19:31:35.133Z,147.25
2023-01-11T19:34:06.300Z,119.97
2023-01-11T19:36:36.299Z,124.55
2023-01-11T19:39:10.658Z,127.43
2023-01-11T19:41:59.448Z,133.23
2023-01-11T19:44:31.258Z,127.90
2023-01-11T19:47:12.138Z,126.38
2023-01-11T19:49:43.692Z,121.20
2023-01-11T19:52:19.253Z,121.25
2023-01-11T19:54:51.845Z,112.18
2023-01-11T19:57:23.196Z,104.60
2023-01-11T19:59:54.302Z,103.20
2023-01-11T20:02:26.432Z,105.53
2023-01-11T20:04:57.734Z,102.35
2023-01-11T20:07:28.557Z,103.67
2023-01-11T20:09:58.412Z,105.53
2023-01-11T20:12:28.236Z,99.82
2023-01-11T20:15:01.282Z,99.70
2023-01-11T20:17:33.197Z,101.18
2023-01-11T20:20:04.507Z,107.85
2023-01-11T20:22:34.899Z,117.25
2023-01-11T20:25:08.121Z,113.80
2023-01-11T20:27:38.716Z,122.78
2023-01-11T20:30:09.639Z,128.10
2023-01-11T20:32:43.837Z,120.55
2023-01-11T20:35:23.197Z,131.50
2023-01-11T20:37:53.959Z,135.65
2023-01-11T20:40:24.549Z,140.82
2023-01-11T20:42:54.873Z,134.35
2023-01-11T20:45:24.372Z,134.07
2023-01-11T20:47:55.390Z,142.43
2023-01-11T20:50:25.130Z,138.52
2023-01-11T20:52:53.914Z,131.55
2023-01-11T20:55:30.082Z,143.40
2023-01-11T20:57:59.661Z,147.40
2023-01-11T21:00:29.679Z,144.93
2023-01-11T21:03:02.469Z,142.10
2023-01-11T21:05:30.922Z,159.70
2023-01-11T21:07:59.953Z,170.60
2023-01-11T21:10:29.112Z,161.55
2023-01-11T21:15:30.317Z,154.98
2023-01-11T21:18:00.712Z,163.43
2023-01-11T21:20:30.482Z,166.63
2023-01-11T21:23:00.358Z,173.48
2023-01-11T21:25:30.930Z,157.63
2023-01-11T21:28:01.576Z,141.82
2023-01-11T21:30:30.414Z,138.07
2023-01-11T21:33:04.433Z,130.65
2023-01-11T21:35:36.777Z,130.52
2023-01-11T21:38:06.005Z,127.50
2023-01-11T21:40:36.329Z,122.38
2023-01-11T21:43:08.725Z,128.57
2023-01-11T21:45:42.813Z,122.38
2023-01-11T21:48:16.609Z,123.93
2023-01-11T21:50:48.109Z,116.65
2023-01-11T21:53:16.497Z,121.90
2023-01-11T21:55:45.388Z,117.88
2023-01-11T21:58:14.428Z,123.32
2023-01-11T22:00:46.847Z,114.60
2023-01-11T22:03:18.862Z,113.53
2023-01-11T22:05:49.130Z,112.18
2023-01-11T22:08:21.873Z,120.18
2023-01-11T22:10:58.745Z,120.35
2023-01-11T22:13:29.679Z,116.15
2023-01-11T22:16:03.167Z,118.95
2023-01-11T22:18:33.907Z,127.82
2023-01-11T22:21:09.947Z,124.70
2023-01-11T22:23:41.005Z,120.35
2023-01-11T22:26:13.638Z,117.70
2023-01-11T22:28:59.215Z,112.32
2023-01-11T22:31:30.243Z,115.43
2023-01-11T22:34:07.620Z,121.80
2023-01-11T22:36:38.189Z,123.43
2023-01-11T22:39:10.738Z,118.00
2023-01-11T22:41:45.764Z,115.63
2023-01-11T22:44:15.465Z,109.35
2023-01-11T22:46:47.123Z,121.15
2023-01-11T22:49:19.879Z,144.70
2023-01-11T22:51:52.841Z,142.27
2023-01-11T22:54:23.942Z,143.50
2023-01-11T22:56:58.780Z,148.57
2023-01-11T22:59:29.437Z,144.13
2023-01-11T23:01:58.734Z,151.68
2023-01-11T23:04:29.435Z,145.30
2023-01-11T23:06:58.960Z,140.82
2023-01-11T23:09:27.466Z,146.13
2023-01-11T23:12:30.712Z,148.43
2023-01-11T23:15:00.682Z,153.75
2023-01-11T23:17:37.892Z,154.75
2023-01-11T23:20:10.446Z,157.05
2023-01-11T23:22:39.849Z,147.95
2023-01-11T23:25:09.847Z,146.07
2023-01-11T23:27:40.601Z,148.15
2023-01-11T23:30:12.614Z,140.43
2023-01-11T23:32:42.161Z,136.60
2023-01-11T23:35:13.349Z,136.63
2023-01-11T23:37:44.145Z,147.63
2023-01-11T23:40:15.992Z,140.68
2023-01-11T23:42:43.361Z,140.15
2023-01-11T23:45:15.182Z,125.65
2023-01-11T23:47:43.763Z,120.95
2023-01-11T23:50:16.946Z,125.82
2023-01-11T23:52:47.003Z,124.35
2023-01-11T23:55:17.713Z,123.57
2023-01-11T23:58:09.009Z,126.55
